aviador You're here:

YPKG Decoded Metar

KALGOORLIE in AUSTRALIA
Report Time2018-05-25 20:30:00
UTC Time2018-05-25 20:48:08
Flight Rules vfr VFR
Wind330° at 11 kt
W.Decomp.*RWY 36: 9.4 kt HW 5.7 kt LCW
RWY 29: 8.5 kt HW 6.9 kt RCW
W.Rank330° ranks 24
Current wind is above 330° avg. (7.8)
Visibility9999 m
Phenomena:N/A
Clouds:N/A
Expected CloudBase > 1,200 ft AGL from Temp-Dew spread
CeilingNone
Temp13°C (ISA 0)
Dew Point10°C (82% RH)
AAT9.1°C
QNH1006 hPa
Density Alt1,631 ft
Elevation1,181 ft
Report Wrong Elevation
Raw Report
YPKG 252030Z AUTO 33011KT 9999 // NCD 13/10 Q1006=

Extra information for YPKG:More info

Metar Taf Metar & Taf Last 4 Metars F.Rules Stats Wind Profile Meteogram Temp Stats Airport Information Weather charts Add Link Nearby VenuesMetar ALERT Operation Metar Decoded Social comments